»·PEaware :: DFGCW KTWF-KSLC

DFGCW :: KTWF-KSLC

FLIGHT INFORMATION

Flight Status: Arrived
Operator: Unknown
More flights by this operator :: More flights under this callsign
Pilot: Klaus A. (15485)
Aircraft: PILATUS PC-12 EAGLE
(PC12)
More flights by this aircraft type
Origin: KTWF Joslin Fld-Magic Valley Regl
United States
Destination: KSLC Salt Lake City Intl
United States
More flights between these airports :: More routes between these airports
Route: +SNAKO3 MURTH V142 SHEAR V101 TCH
File this flight plan on PilotEdge
Remarks:
Altitude:
(Current/Filed)
17,000ft
Speed:
(Current/Filed)
270kts
Departed: 06-Nov-19 09:30 AM
Arrived: 06-Nov-19 10:20 AM
Distance/Time
Traveled:
153nm/0:50
Distance/Time
To Go:
Arrived

Flight Plot

Page will automatically refresh every two minutes.

Flight plan parsing failed; only flown route is shown


Map Options




Map Legend


Flown Route
Filed Route
Departure Airport
Arrival Airport
Navaid (VOR, NDB)
Fix

Horizontal Profiles

Position Reports

Time Latitude Longitude Heading Altitude Ground
Speed
06-Nov-19 08:54 42.483124 -114.482855 271 4154ft 0kts
06-Nov-19 08:55 42.483124 -114.482855 271 4154ft 0kts
06-Nov-19 08:56 42.483124 -114.482855 271 4154ft 0kts
06-Nov-19 08:57 42.483124 -114.482855 271 4154ft 0kts
06-Nov-19 08:58 42.483124 -114.482855 271 4154ft 0kts
06-Nov-19 08:59 42.483124 -114.482855 271 4154ft 0kts
06-Nov-19 09:00 42.483124 -114.482855 271 4154ft 0kts
06-Nov-19 09:01 42.483124 -114.482855 271 4154ft 0kts
06-Nov-19 09:02 42.483124 -114.482856 271 4154ft 0kts
06-Nov-19 09:03 42.483124 -114.482855 271 4154ft 0kts
06-Nov-19 09:04 42.483124 -114.482855 271 4154ft 0kts
06-Nov-19 09:05 42.483124 -114.482855 271 4154ft 0kts
06-Nov-19 09:06 42.483124 -114.482855 271 4154ft 0kts
06-Nov-19 09:07 42.483124 -114.482855 271 4154ft 0kts
06-Nov-19 09:08 42.483124 -114.482855 271 4154ft 0kts
06-Nov-19 09:09 42.483124 -114.482855 271 4154ft 0kts
06-Nov-19 09:10 42.483124 -114.482855 271 4154ft 0kts
06-Nov-19 09:11 42.483124 -114.482855 271 4154ft 0kts
06-Nov-19 09:12 42.483124 -114.482855 271 4154ft 0kts
06-Nov-19 09:13 42.483124 -114.482855 271 4154ft 0kts
06-Nov-19 09:14 42.483124 -114.482855 271 4154ft 0kts
06-Nov-19 09:15 42.483124 -114.482855 271 4154ft 0kts
06-Nov-19 09:16 42.483124 -114.482860 272 4154ft 0kts
06-Nov-19 09:17 42.482355 -114.483052 108 4154ft 11kts
06-Nov-19 09:18 42.482253 -114.478063 91 4154ft 14kts
06-Nov-19 09:19 42.482243 -114.477473 94 4154ft 2kts
06-Nov-19 09:20 42.482259 -114.478025 272 4154ft 10kts
06-Nov-19 09:21 42.482348 -114.484142 272 4154ft 20kts
06-Nov-19 09:22 42.482378 -114.486267 270 4154ft 0kts
06-Nov-19 09:23 42.482378 -114.486267 270 4154ft 0kts
06-Nov-19 09:24 42.482378 -114.486267 270 4154ft 0kts
06-Nov-19 09:25 42.482378 -114.486267 270 4154ft 0kts
06-Nov-19 09:26 42.482378 -114.486267 270 4154ft 0kts
06-Nov-19 09:27 42.482378 -114.486267 270 4154ft 0kts
06-Nov-19 09:28 42.482518 -114.487516 313 4154ft 0kts
06-Nov-19 09:29 42.498755 -114.512588 298 5136ft 136kts
06-Nov-19 09:30 42.494756 -114.567687 268 7316ft 156kts
06-Nov-19 09:31 42.491288 -114.626463 273 9425ft 159kts
06-Nov-19 09:32 42.488195 -114.687364 270 11278ft 165kts
06-Nov-19 09:33 42.468124 -114.735601 174 12830ft 186kts
06-Nov-19 09:34 42.419926 -114.717852 157 14527ft 178kts
06-Nov-19 09:35 42.377342 -114.680264 138 15818ft 187kts
06-Nov-19 09:36 42.343512 -114.627472 121 16888ft 200kts
06-Nov-19 09:37 42.316780 -114.552862 105 17041ft 235kts
06-Nov-19 09:38 42.304679 -114.463859 85 17145ft 247kts
06-Nov-19 09:39 42.320329 -114.372827 62 17045ft 254kts
06-Nov-19 09:40 42.366319 -114.303075 30 17075ft 249kts
06-Nov-19 09:41 42.426416 -114.256556 58 16864ft 258kts
06-Nov-19 09:42 42.405497 -114.167911 112 17006ft 260kts
06-Nov-19 09:43 42.369467 -114.082313 113 16989ft 263kts
06-Nov-19 09:44 42.340642 -113.991122 109 16989ft 265kts
06-Nov-19 09:45 42.313637 -113.897842 108 16989ft 266kts
06-Nov-19 09:46 42.286939 -113.804462 108 16989ft 267kts
06-Nov-19 09:47 42.260244 -113.710992 108 16989ft 267kts
06-Nov-19 09:48 42.233386 -113.617310 108 16989ft 267kts
06-Nov-19 09:49 42.206513 -113.523929 108 16989ft 267kts
06-Nov-19 09:50 42.170305 -113.439053 142 17001ft 270kts
06-Nov-19 09:51 42.110341 -113.377726 130 16990ft 270kts
06-Nov-19 09:52 42.068909 -113.293919 116 16990ft 268kts
06-Nov-19 09:53 42.035140 -113.204384 114 16990ft 268kts
06-Nov-19 09:54 42.002800 -113.114271 113 16990ft 267kts
06-Nov-19 09:55 41.970746 -113.024344 113 16990ft 266kts
06-Nov-19 09:56 41.938661 -112.934406 113 17028ft 265kts
06-Nov-19 09:57 41.891705 -112.880250 151 17042ft 269kts
06-Nov-19 09:58 41.821923 -112.832245 141 17043ft 269kts
06-Nov-19 09:59 41.765557 -112.766238 134 17043ft 268kts
06-Nov-19 10:00 41.711868 -112.696748 133 17043ft 268kts
06-Nov-19 10:01 41.658609 -112.626780 133 17043ft 268kts
06-Nov-19 10:02 41.605426 -112.556837 133 17043ft 269kts
06-Nov-19 10:03 41.551621 -112.487605 142 17037ft 270kts
06-Nov-19 10:04 41.483916 -112.451151 152 16944ft 275kts
06-Nov-19 10:05 41.412477 -112.399437 149 15466ft 304kts
06-Nov-19 10:06 41.344469 -112.333494 112 13928ft 306kts
06-Nov-19 10:07 41.319139 -112.231057 117 13013ft 264kts
06-Nov-19 10:08 41.268106 -112.171763 140 11981ft 236kts
06-Nov-19 10:09 41.217034 -112.119253 140 10482ft 230kts
06-Nov-19 10:10 41.167012 -112.067990 140 8989ft 226kts
06-Nov-19 10:11 41.118358 -112.018484 140 8006ft 200kts
06-Nov-19 10:12 41.075404 -111.991428 165 7738ft 175kts
06-Nov-19 10:13 41.029083 -111.972761 170 7634ft 180kts
06-Nov-19 10:14 40.977033 -111.967009 177 7166ft 192kts
06-Nov-19 10:15 40.924667 -111.962793 178 6058ft 198kts
06-Nov-19 10:16 40.877873 -111.962445 175 5634ft 138kts
06-Nov-19 10:17 40.840803 -111.961910 181 4974ft 132kts
06-Nov-19 10:18 40.804500 -111.962074 179 4379ft 122kts
06-Nov-19 10:19 40.782485 -111.961786 113 4232ft 11kts
06-Nov-19 10:20 40.782439 -111.960537 90 4232ft 0kts
06-Nov-19 10:21 40.782438 -111.960472 90 4232ft 0kts
06-Nov-19 10:22 40.780448 -111.960009 178 4232ft 15kts
06-Nov-19 10:23 40.778863 -111.958225 356 4232ft 0kts
06-Nov-19 10:24 40.778863 -111.958225 356 4232ft 0kts
06-Nov-19 10:25 40.778863 -111.958225 356 4232ft 0kts
06-Nov-19 10:26 40.778863 -111.958225 356 4232ft 0kts
06-Nov-19 10:27 40.778863 -111.958225 356 4232ft 0kts
06-Nov-19 10:28 40.778863 -111.958225 356 4232ft 0kts
06-Nov-19 10:29 40.778863 -111.958225 356 4232ft 0kts
06-Nov-19 10:30 40.778863 -111.958225 356 4232ft 0kts
06-Nov-19 10:31 40.778863 -111.958225 356 4232ft 0kts
06-Nov-19 10:33 40.778863 -111.958225 356 4232ft 0kts
06-Nov-19 10:34 40.778863 -111.958225 356 4232ft 0kts

Navigation Log

Ident Type
Flight plan parsing failed, navigation log unavailable